Time;durP1;ratioP1;P1;durP2;ratioP2;P2;SDS_P1;SDS_P2;PMS_P1;PMS_P2;Temp;Humidity;BMP_temperature;BMP_pressure;BME280_temperature;BME280_humidity;BME280_pressure;Samples;Min_cycle;Max_cycle;Signal;HPM_P1;HPM_P2
2023/03/07 00:02:22;;;;;;;8.63;7.73;;;6.90;35.00;;;;;;10315948;28;20234;-75
2023/03/07 00:07:25;;;;;;;8.97;8.07;;;6.90;34.90;;;;;;10317008;28;20629;-75
2023/03/07 00:12:28;;;;;;;8.27;7.47;;;6.90;34.80;;;;;;10313808;28;20696;-75
2023/03/07 00:17:35;;;;;;;9.43;8.27;;;6.90;34.90;;;;;;10317447;28;20578;-75
2023/03/07 00:22:38;;;;;;;9.30;8.40;;;6.90;34.90;;;;;;10316928;28;20611;-75
2023/03/07 00:27:42;;;;;;;8.77;7.87;;;6.90;35.70;;;;;;10315917;28;20494;-75
2023/03/07 00:32:46;;;;;;;9.00;7.57;;;6.90;35.00;;;;;;10317343;28;20249;-75
2023/03/07 00:37:49;;;;;;;8.40;7.43;;;6.90;35.10;;;;;;10314573;28;20238;-75
2023/03/07 00:42:52;;;;;;;9.43;7.87;;;6.90;34.90;;;;;;10317763;28;20748;-75
2023/03/07 00:47:57;;;;;;;8.97;7.70;;;7.00;35.00;;;;;;10318059;28;20238;-75
2023/03/07 00:53:00;;;;;;;8.67;7.73;;;7.00;34.90;;;;;;10314439;28;20661;-75
2023/03/07 00:58:03;;;;;;;8.67;7.57;;;6.90;34.80;;;;;;10317504;28;20547;-75
2023/03/07 01:03:07;;;;;;;9.40;7.67;;;6.90;34.90;;;;;;10315839;28;20227;-75
2023/03/07 01:08:11;;;;;;;9.03;7.80;;;6.90;35.10;;;;;;10315463;28;20231;-75
2023/03/07 01:13:15;;;;;;;8.70;7.80;;;6.90;35.10;;;;;;10316314;28;20256;-75
2023/03/07 01:18:20;;;;;;;9.13;8.17;;;6.80;34.90;;;;;;10315482;28;20234;-75
2023/03/07 01:23:23;;;;;;;9.20;8.20;;;6.80;35.00;;;;;;10314159;28;20231;-75
2023/03/07 01:28:26;;;;;;;8.80;7.90;;;6.80;35.00;;;;;;10315802;28;20223;-75
2023/03/07 01:33:30;;;;;;;9.80;7.87;;;6.80;35.00;;;;;;10323015;28;20731;-75
2023/03/07 01:38:33;;;;;;;9.13;8.23;;;6.80;35.10;;;;;;10323058;28;20234;-75
2023/03/07 01:43:37;;;;;;;8.83;7.93;;;6.80;35.10;;;;;;10320997;28;20227;-75
2023/03/07 01:48:42;;;;;;;9.40;8.50;;;6.80;35.20;;;;;;10322709;28;20230;-75
2023/03/07 01:53:46;;;;;;;9.60;8.07;;;6.80;35.10;;;;;;10322730;28;20727;-75
2023/03/07 01:58:51;;;;;;;9.53;8.23;;;6.80;35.10;;;;;;10322273;28;20743;-75
2023/03/07 02:04:01;;;;;;;9.13;8.23;;;6.70;35.10;;;;;;10320404;28;20598;-75
2023/03/07 02:09:11;;;;;;;9.13;8.27;;;6.70;35.20;;;;;;10318194;28;20699;-74
2023/03/07 02:14:14;;;;;;;9.77;8.53;;;6.60;35.20;;;;;;10318393;28;20314;-75
2023/03/07 02:19:30;;;;;;;9.30;8.40;;;6.60;35.30;;;;;;10321748;28;20249;-75
2023/03/07 02:24:41;;;;;;;8.73;7.90;;;6.60;35.40;;;;;;10324177;28;20234;-75
2023/03/07 02:29:46;;;;;;;9.10;8.20;;;6.50;35.40;;;;;;10320103;28;20231;-75
2023/03/07 02:34:49;;;;;;;9.03;7.87;;;6.50;35.30;;;;;;10320783;28;20749;-75
2023/03/07 02:39:54;;;;;;;9.47;8.27;;;6.50;35.30;;;;;;10318937;28;20730;-75
2023/03/07 02:45:00;;;;;;;8.90;8.00;;;6.50;35.30;;;;;;10320681;28;20611;-74
2023/03/07 02:50:05;;;;;;;8.30;7.50;;;6.50;35.30;;;;;;10321195;28;20710;-74
2023/03/07 02:55:09;;;;;;;8.73;7.70;;;6.50;35.30;;;;;;10316711;28;20639;-74
2023/03/07 03:00:16;;;;;;;9.03;8.03;;;6.50;35.30;;;;;;10320361;28;20230;-75
2023/03/07 03:05:19;;;;;;;9.17;8.27;;;6.50;35.20;;;;;;10319805;28;20767;-75
2023/03/07 03:10:22;;;;;;;9.93;8.90;;;6.60;35.20;;;;;;10320145;28;20234;-75
2023/03/07 03:15:27;;;;;;;9.83;8.83;;;6.50;35.10;;;;;;10320464;28;20608;-75
2023/03/07 03:20:30;;;;;;;10.33;8.30;;;6.60;35.20;;;;;;10318644;28;20705;-74
2023/03/07 03:25:33;;;;;;;10.13;8.60;;;6.60;35.10;;;;;;10320162;28;20231;-75
2023/03/07 03:30:37;;;;;;;9.80;8.47;;;6.60;35.10;;;;;;10316772;28;20234;-75
2023/03/07 03:35:42;;;;;;;9.13;8.17;;;6.60;35.20;;;;;;10319587;28;20230;-75
2023/03/07 03:40:45;;;;;;;10.73;9.30;;;6.50;35.00;;;;;;10316996;28;20233;-75
2023/03/07 03:45:55;;;;;;;9.33;8.37;;;6.50;35.10;;;;;;10318119;28;20600;-75
2023/03/07 03:51:03;;;;;;;9.23;8.33;;;6.50;35.00;;;;;;10319518;28;20255;-75
2023/03/07 03:56:08;;;;;;;9.50;8.37;;;6.50;35.00;;;;;;10314700;28;20476;-74
2023/03/07 04:01:13;;;;;;;8.80;7.90;;;6.50;35.00;;;;;;10319338;28;20234;-75
2023/03/07 04:06:18;;;;;;;9.40;8.50;;;6.50;34.90;;;;;;10319824;28;20226;-74
2023/03/07 04:11:22;;;;;;;9.53;8.53;;;6.50;34.90;;;;;;10319525;28;20242;-75
2023/03/07 04:16:27;;;;;;;9.53;8.53;;;6.40;34.80;;;;;;10319682;28;20234;-75
2023/03/07 04:21:30;;;;;;;9.27;8.30;;;6.40;34.80;;;;;;10319296;28;20226;-71
2023/03/07 04:26:34;;;;;;;10.50;8.27;;;6.30;34.80;;;;;;10317413;28;20238;-72
2023/03/07 04:31:38;;;;;;;9.40;8.50;;;6.30;34.90;;;;;;10318908;28;20245;-71
2023/03/07 04:36:41;;;;;;;9.60;8.60;;;6.20;34.90;;;;;;10317141;28;20238;-72
2023/03/07 04:41:44;;;;;;;9.07;8.17;;;6.20;34.90;;;;;;10318128;28;20580;-72
2023/03/07 04:46:49;;;;;;;8.70;7.80;;;6.20;35.00;;;;;;10318063;28;20231;-72
2023/03/07 04:51:52;;;;;;;10.23;9.13;;;6.10;35.10;;;;;;10303401;28;20223;-72
2023/03/07 04:56:55;;;;;;;9.50;8.60;;;6.10;35.10;;;;;;10316450;28;20242;-72
2023/03/07 05:02:00;;;;;;;9.87;8.20;;;6.10;35.10;;;;;;10316133;28;20219;-74
2023/03/07 05:07:03;;;;;;;12.27;8.97;;;6.10;35.10;;;;;;10324172;28;20222;-75
2023/03/07 05:12:07;;;;;;;11.17;9.27;;;6.10;35.10;;;;;;10324409;28;20227;-75
2023/03/07 05:17:11;;;;;;;10.83;9.23;;;6.00;35.10;;;;;;10323421;28;20231;-73
2023/03/07 05:22:15;;;;;;;9.40;8.40;;;6.00;35.20;;;;;;10325418;28;20440;-72
2023/03/07 05:27:18;;;;;;;11.67;9.03;;;5.90;35.30;;;;;;10325952;28;20230;-73
2023/03/07 05:32:22;;;;;;;11.90;10.53;;;5.90;35.30;;;;;;10327433;28;20219;-72
2023/03/07 05:37:25;;;;;;;12.07;10.33;;;5.80;35.40;;;;;;10323307;28;20235;-76
2023/03/07 05:42:28;;;;;;;13.53;9.03;;;5.80;35.40;;;;;;10324651;28;20235;-75
2023/03/07 05:47:33;;;;;;;8.50;7.63;;;5.80;35.50;;;;;;10323876;28;20289;-74
2023/03/07 05:52:36;;;;;;;8.73;7.60;;;5.80;35.40;;;;;;10321343;28;20782;-74
2023/03/07 05:57:40;;;;;;;10.33;8.30;;;5.90;35.50;;;;;;10323724;28;20223;-71
2023/03/07 06:02:44;;;;;;;9.53;7.90;;;5.90;35.50;;;;;;10323227;28;20334;-72
2023/03/07 06:07:48;;;;;;;8.73;7.83;;;5.90;35.40;;;;;;10322851;28;20289;-75
2023/03/07 06:12:52;;;;;;;8.50;7.60;;;6.00;35.40;;;;;;10323529;28;20242;-71
2023/03/07 06:17:56;;;;;;;8.33;7.40;;;6.10;35.50;;;;;;10323614;28;20246;-72
2023/03/07 06:23:01;;;;;;;10.20;7.87;;;6.10;35.30;;;;;;10320434;28;20251;-71
2023/03/07 06:28:04;;;;;;;12.37;9.40;;;6.20;36.00;;;;;;10316684;28;20227;-72
2023/03/07 06:33:09;;;;;;;8.97;7.77;;;6.30;35.50;;;;;;10321092;28;20230;-71
2023/03/07 06:38:14;;;;;;;8.97;7.43;;;6.40;35.30;;;;;;10316882;28;20586;-71
2023/03/07 06:43:17;;;;;;;9.60;7.77;;;6.40;35.10;;;;;;10320600;28;20231;-71
2023/03/07 06:48:22;;;;;;;10.17;8.67;;;6.50;35.10;;;;;;10320180;28;20548;-71
2023/03/07 06:53:25;;;;;;;9.77;8.20;;;6.50;34.80;;;;;;10321208;28;20235;-71
2023/03/07 06:58:28;;;;;;;9.53;8.20;;;6.60;35.00;;;;;;10317076;28;20231;-71
2023/03/07 07:03:32;;;;;;;9.33;8.03;;;6.60;34.80;;;;;;10319412;28;20699;-72
2023/03/07 07:08:35;;;;;;;9.43;8.43;;;6.70;34.80;;;;;;10319727;28;20703;-71
2023/03/07 07:13:39;;;;;;;9.07;8.07;;;6.70;34.80;;;;;;10318368;28;20700;-71
2023/03/07 07:18:43;;;;;;;9.37;8.13;;;6.80;34.80;;;;;;10319928;28;20222;-71
2023/03/07 07:23:47;;;;;;;9.40;8.27;;;6.80;34.60;;;;;;10316975;28;20227;-71
2023/03/07 07:28:53;;;;;;;8.70;7.53;;;6.80;34.70;;;;;;10310064;28;20227;-71
2023/03/07 07:33:58;;;;;;;8.40;7.40;;;6.90;34.70;;;;;;10316745;28;20282;-73
2023/03/07 07:39:04;;;;;;;8.80;7.67;;;6.90;34.60;;;;;;10310000;28;20235;-72
2023/03/07 07:44:07;;;;;;;7.57;6.83;;;7.00;34.60;;;;;;10319637;28;20570;-70
2023/03/07 07:49:12;;;;;;;9.43;8.43;;;7.10;34.60;;;;;;10319848;28;20231;-70
2023/03/07 07:54:15;;;;;;;8.23;7.43;;;7.10;34.20;;;;;;10311725;28;20223;-70
2023/03/07 07:59:18;;;;;;;9.03;8.13;;;7.20;34.50;;;;;;10308392;28;20231;-71
2023/03/07 08:04:22;;;;;;;9.57;7.93;;;7.30;34.40;;;;;;10310956;28;20227;-70
2023/03/07 08:09:26;;;;;;;9.13;7.50;;;7.40;34.20;;;;;;10309692;28;20242;-70
2023/03/07 08:14:29;;;;;;;9.30;7.50;;;7.40;34.30;;;;;;10306173;28;20325;-70
2023/03/07 08:19:33;;;;;;;9.27;8.27;;;7.50;34.50;;;;;;10312785;28;20238;-70
2023/03/07 08:24:37;;;;;;;8.70;7.40;;;7.60;34.10;;;;;;10311288;28;20234;-70
2023/03/07 08:29:43;;;;;;;7.93;7.13;;;7.60;34.00;;;;;;10311893;28;20622;-70
2023/03/07 08:34:47;;;;;;;8.90;8.00;;;7.70;34.20;;;;;;10316456;28;20230;-70
2023/03/07 08:39:50;;;;;;;8.43;7.40;;;7.80;33.90;;;;;;10315047;28;20704;-70
2023/03/07 08:44:53;;;;;;;9.67;7.70;;;7.80;34.10;;;;;;10318150;28;20595;-70
2023/03/07 08:49:58;;;;;;;7.90;7.17;;;7.90;34.20;;;;;;10317930;28;20235;-69
2023/03/07 08:55:01;;;;;;;9.23;7.63;;;7.90;33.80;;;;;;10315232;28;20235;-70
2023/03/07 09:00:08;;;;;;;8.80;7.90;;;7.90;34.10;;;;;;10315916;28;20589;-70
2023/03/07 09:05:12;;;;;;;8.07;7.33;;;8.00;33.90;;;;;;10316739;28;20230;-70
2023/03/07 09:10:16;;;;;;;7.73;7.00;;;8.10;33.70;;;;;;10311305;28;20833;-70
2023/03/07 09:15:19;;;;;;;7.70;6.80;;;8.20;33.90;;;;;;10308692;28;20246;-70
2023/03/07 09:20:23;;;;;;;7.77;6.97;;;8.30;33.90;;;;;;10310348;28;20735;-70
2023/03/07 09:25:26;;;;;;;8.53;7.00;;;8.30;33.60;;;;;;10309924;28;20219;-70
2023/03/07 09:30:30;;;;;;;9.57;7.87;;;8.40;33.80;;;;;;10309649;28;20242;-70
2023/03/07 09:35:34;;;;;;;8.10;7.30;;;8.40;33.70;;;;;;10310880;28;20755;-70
2023/03/07 09:40:38;;;;;;;8.77;7.87;;;8.50;33.60;;;;;;10309038;28;20235;-70
2023/03/07 09:45:53;;;;;;;8.73;7.83;;;8.60;33.70;;;;;;10308383;28;20704;-69
2023/03/07 09:51:00;;;;;;;8.13;7.33;;;8.70;33.60;;;;;;10307089;28;20239;-70
2023/03/07 09:56:20;;;;;;;8.17;7.37;;;8.80;33.40;;;;;;10315924;28;20691;-70
2023/03/07 10:01:29;;;;;;;8.10;7.30;;;8.90;32.70;;;;;;10315059;28;20658;-69
2023/03/07 10:06:38;;;;;;;7.33;6.60;;;8.90;32.50;;;;;;10315651;28;20246;-70
2023/03/07 10:12:01;;;;;;;8.13;6.90;;;9.00;32.60;;;;;;10316615;28;20318;-70
2023/03/07 10:17:19;;;;;;;8.50;7.43;;;9.00;32.50;;;;;;10312765;28;20250;-69
2023/03/07 10:22:30;;;;;;;8.20;7.40;;;9.20;33.30;;;;;;10317045;28;20238;-70
2023/03/07 10:27:33;;;;;;;8.27;7.30;;;9.30;32.60;;;;;;10315024;28;20242;-70
2023/03/07 10:32:39;;;;;;;7.60;6.80;;;9.50;33.30;;;;;;10315141;28;20223;-70
2023/03/07 10:37:50;;;;;;;8.13;7.33;;;9.70;33.30;;;;;;10317210;28;20703;-69
2023/03/07 10:42:54;;;;;;;7.53;6.83;;;9.90;32.30;;;;;;10313911;28;20230;-70
2023/03/07 10:47:59;;;;;;;8.23;7.43;;;10.00;31.90;;;;;;10312080;28;20416;-70
2023/03/07 10:53:08;;;;;;;7.50;6.53;;;10.10;30.90;;;;;;10314977;28;20474;-70
2023/03/07 10:58:20;;;;;;;7.50;6.77;;;10.30;30.90;;;;;;10312047;28;20722;-70
2023/03/07 11:03:27;;;;;;;7.73;7.03;;;10.40;30.30;;;;;;10313802;28;20227;-70
2023/03/07 11:08:34;;;;;;;7.90;7.10;;;10.60;30.30;;;;;;10317614;28;20238;-70
2023/03/07 11:13:37;;;;;;;7.17;6.37;;;10.70;29.90;;;;;;10319742;28;20608;-70
2023/03/07 11:18:42;;;;;;;7.17;6.47;;;10.80;30.20;;;;;;10322454;28;20234;-70
2023/03/07 11:23:59;;;;;;;7.73;6.93;;;10.90;29.70;;;;;;10319588;28;20227;-69
2023/03/07 11:29:07;;;;;;;8.20;7.40;;;10.90;28.80;;;;;;10317012;28;20268;-70
2023/03/07 11:34:24;;;;;;;8.07;7.17;;;11.00;29.00;;;;;;10314089;28;20707;-70
2023/03/07 11:39:34;;;;;;;9.37;7.43;;;11.10;29.00;;;;;;10320235;28;20239;-70
2023/03/07 11:44:46;;;;;;;10.07;8.17;;;11.20;29.10;;;;;;10319411;28;20238;-70
2023/03/07 11:50:04;;;;;;;8.90;7.77;;;11.30;28.60;;;;;;10318642;28;20251;-70
2023/03/07 11:55:23;;;;;;;9.37;8.37;;;11.30;27.50;;;;;;10317542;28;20225;-70
2023/03/07 12:00:33;;;;;;;8.47;7.53;;;11.30;26.90;;;;;;10316000;28;20230;-70
2023/03/07 12:05:45;;;;;;;8.97;7.10;;;11.30;27.80;;;;;;10316997;28;20231;-70
2023/03/07 12:11:05;;;;;;;8.80;7.57;;;11.30;28.10;;;;;;10317454;28;20719;-70
2023/03/07 12:16:18;;;;;;;7.47;6.77;;;11.40;27.20;;;;;;10314383;28;20231;-70
2023/03/07 12:21:45;;;;;;;7.60;6.90;;;11.40;27.20;;;;;;10316200;28;20249;-70
2023/03/07 12:26:57;;;;;;;8.07;7.23;;;11.40;27.70;;;;;;10309848;28;20243;-70
2023/03/07 12:32:04;;;;;;;9.33;7.90;;;11.40;26.00;;;;;;10310662;28;20719;-70
2023/03/07 12:37:11;;;;;;;7.80;7.00;;;11.40;27.40;;;;;;10313142;28;20231;-71
2023/03/07 12:42:23;;;;;;;8.37;7.40;;;11.40;28.40;;;;;;10314584;28;20250;-70
2023/03/07 12:47:32;;;;;;;7.23;6.50;;;11.50;27.00;;;;;;10313696;28;20238;-70
2023/03/07 12:52:43;;;;;;;8.50;7.43;;;11.50;26.80;;;;;;10309867;28;20223;-70
2023/03/07 12:57:55;;;;;;;8.87;6.80;;;11.40;26.30;;;;;;10309234;28;20723;-71
2023/03/07 13:03:03;;;;;;;6.90;6.20;;;11.40;25.90;;;;;;10308031;28;20623;-71
2023/03/07 13:08:07;;;;;;;7.87;7.07;;;11.40;26.20;;;;;;10313329;28;20223;-71
2023/03/07 13:13:43;;;;;;;7.60;6.90;;;11.30;25.90;;;;;;10312416;28;20230;-71
2023/03/07 13:18:48;;;;;;;7.13;6.47;;;11.30;25.40;;;;;;10311301;28;20227;-71
2023/03/07 13:24:32;;;;;;;7.17;6.47;;;11.20;26.30;;;;;;10311074;28;20487;-71
2023/03/07 13:30:05;;;;;;;7.10;6.40;;;11.20;26.00;;;;;;10319606;28;20590;-71
2023/03/07 13:35:10;;;;;;;9.40;7.20;;;11.30;25.70;;;;;;10319324;28;20222;-72
2023/03/07 13:40:29;;;;;;;6.77;6.13;;;11.30;25.40;;;;;;10321668;28;20238;-71
2023/03/07 13:45:49;;;;;;;8.60;7.13;;;11.30;25.00;;;;;;10320328;28;20238;-71
2023/03/07 13:51:08;;;;;;;7.60;6.70;;;11.30;24.90;;;;;;10318590;28;20252;-71
2023/03/07 13:56:25;;;;;;;7.57;6.50;;;11.20;25.20;;;;;;10319232;28;20241;-71
2023/03/07 14:01:32;;;;;;;7.90;6.63;;;11.20;25.90;;;;;;10318632;28;20472;-71
2023/03/07 14:06:40;;;;;;;6.73;6.13;;;11.20;26.10;;;;;;10319516;28;20234;-71
2023/03/07 14:11:51;;;;;;;7.53;6.83;;;11.30;26.40;;;;;;10316813;28;20234;-71
2023/03/07 14:17:16;;;;;;;7.80;6.93;;;11.30;25.40;;;;;;10319271;28;20514;-71
2023/03/07 14:22:33;;;;;;;7.50;6.77;;;11.30;26.00;;;;;;10314710;28;20744;-72
2023/03/07 14:27:52;;;;;;;8.77;7.77;;;11.30;25.70;;;;;;10320464;28;20235;-71
2023/03/07 14:32:56;;;;;;;8.07;7.10;;;11.30;25.30;;;;;;10316939;28;20711;-72
2023/03/07 14:38:00;;;;;;;7.30;6.53;;;11.30;26.40;;;;;;10317845;28;20569;-71
2023/03/07 14:43:18;;;;;;;7.73;7.03;;;11.30;26.30;;;;;;10316405;28;20229;-72
2023/03/07 14:48:50;;;;;;;8.07;7.27;;;11.30;26.10;;;;;;10315262;28;20291;-71
2023/03/07 14:53:58;;;;;;;7.77;6.97;;;11.30;25.20;;;;;;10317745;28;20235;-72
2023/03/07 14:59:02;;;;;;;8.10;7.30;;;11.30;25.60;;;;;;10317586;28;20258;-71
2023/03/07 15:04:22;;;;;;;8.67;7.77;;;11.20;26.10;;;;;;10317570;28;20219;-71
2023/03/07 15:09:28;;;;;;;8.57;7.30;;;11.20;25.40;;;;;;10313385;28;20231;-72
2023/03/07 15:14:40;;;;;;;8.73;7.83;;;11.20;26.00;;;;;;10314114;28;20323;-71
2023/03/07 15:19:46;;;;;;;8.10;7.30;;;11.10;25.80;;;;;;10319113;28;20285;-69
2023/03/07 15:24:52;;;;;;;8.03;7.23;;;11.00;26.30;;;;;;10316937;28;20242;-71
2023/03/07 15:29:56;;;;;;;7.80;7.10;;;11.00;26.30;;;;;;10312313;28;20235;-73
2023/03/07 15:35:00;;;;;;;7.73;6.97;;;10.90;26.50;;;;;;10313652;28;20238;-73
2023/03/07 15:40:25;;;;;;;8.20;6.97;;;10.90;26.30;;;;;;10313613;28;20230;-75
2023/03/07 15:45:30;;;;;;;6.90;6.17;;;10.90;24.80;;;;;;10314303;28;20237;-71
2023/03/07 15:50:33;;;;;;;7.80;7.10;;;10.90;27.00;;;;;;10316224;28;20663;-75
2023/03/07 15:55:39;;;;;;;7.53;6.77;;;10.90;26.30;;;;;;10315653;28;20218;-74
2023/03/07 16:00:42;;;;;;;7.80;6.97;;;10.80;26.40;;;;;;10317967;28;20456;-75
2023/03/07 16:05:45;;;;;;;7.67;6.77;;;10.80;26.20;;;;;;10319121;28;20238;-75
2023/03/07 16:10:55;;;;;;;8.37;7.50;;;10.70;26.40;;;;;;10319063;28;20330;-75
2023/03/07 16:16:00;;;;;;;7.47;6.47;;;10.80;26.10;;;;;;10315781;28;20234;-75
2023/03/07 16:21:04;;;;;;;7.67;6.97;;;10.70;26.40;;;;;;10317545;28;20230;-77
2023/03/07 16:26:13;;;;;;;7.23;6.53;;;10.70;26.60;;;;;;10317611;28;20250;-75
2023/03/07 16:31:18;;;;;;;7.27;6.57;;;10.70;25.80;;;;;;10311968;28;20234;-76
2023/03/07 16:36:22;;;;;;;8.00;7.20;;;10.60;26.10;;;;;;10317098;28;20695;-76
2023/03/07 16:41:26;;;;;;;7.27;6.57;;;10.60;26.50;;;;;;10313946;28;20231;-76
2023/03/07 16:46:30;;;;;;;7.70;6.90;;;10.60;26.30;;;;;;10315607;28;20233;-77
2023/03/07 16:51:33;;;;;;;7.10;6.40;;;10.60;26.40;;;;;;10317868;28;20242;-78
2023/03/07 16:56:40;;;;;;;7.80;7.00;;;10.50;26.90;;;;;;10316398;28;20281;-72
2023/03/07 17:01:45;;;;;;;7.77;6.90;;;10.50;25.90;;;;;;10316386;28;20918;-72
2023/03/07 17:06:48;;;;;;;8.10;7.30;;;10.50;26.00;;;;;;10327122;28;20236;-72
2023/03/07 17:12:08;;;;;;;8.93;7.57;;;10.40;26.00;;;;;;10323748;28;20233;-72
2023/03/07 17:17:18;;;;;;;7.60;6.73;;;10.20;26.30;;;;;;10323546;28;20223;-72
2023/03/07 17:22:21;;;;;;;11.97;9.40;;;10.10;25.80;;;;;;10322218;28;20601;-72
2023/03/07 17:27:25;;;;;;;11.47;9.30;;;10.00;26.10;;;;;;10323137;28;20233;-72
2023/03/07 17:32:28;;;;;;;11.27;9.50;;;9.90;26.50;;;;;;10324858;28;20598;-72
2023/03/07 17:37:32;;;;;;;9.67;7.60;;;9.80;26.60;;;;;;10324319;28;20231;-73
2023/03/07 17:42:36;;;;;;;8.80;7.90;;;9.80;26.70;;;;;;10322802;28;20237;-73
2023/03/07 17:47:40;;;;;;;9.43;7.67;;;9.70;26.60;;;;;;10322225;28;20238;-73
2023/03/07 17:52:43;;;;;;;6.93;6.23;;;9.50;26.40;;;;;;10324917;28;20245;-73
2023/03/07 17:57:47;;;;;;;6.37;5.70;;;9.50;26.70;;;;;;10322980;28;20310;-74
2023/03/07 18:02:51;;;;;;;9.13;7.73;;;9.40;26.60;;;;;;10323973;28;20239;-74
2023/03/07 18:07:54;;;;;;;9.17;7.77;;;9.40;26.80;;;;;;10323378;28;20317;-74
2023/03/07 18:12:59;;;;;;;7.60;6.53;;;9.40;26.80;;;;;;10319284;28;20309;-74
2023/03/07 18:18:02;;;;;;;8.83;7.07;;;9.30;26.70;;;;;;10321787;28;20227;-72
2023/03/07 18:23:07;;;;;;;9.80;8.70;;;9.30;26.80;;;;;;10312502;28;20234;-72
2023/03/07 18:28:12;;;;;;;7.43;6.43;;;9.20;26.60;;;;;;10316329;28;20235;-72
2023/03/07 18:33:15;;;;;;;6.50;5.77;;;9.10;26.60;;;;;;10319517;28;20223;-72
2023/03/07 18:38:19;;;;;;;7.93;7.13;;;9.00;26.80;;;;;;10320458;28;20231;-72
2023/03/07 18:43:23;;;;;;;8.20;6.87;;;8.90;26.80;;;;;;10319044;28;20301;-72
2023/03/07 18:48:26;;;;;;;8.93;8.03;;;8.80;26.80;;;;;;10322121;28;21486;-72
2023/03/07 18:53:30;;;;;;;8.20;7.40;;;8.70;27.10;;;;;;10321711;28;20227;-72
2023/03/07 18:58:34;;;;;;;10.27;9.20;;;8.60;27.30;;;;;;10321653;28;20609;-72
2023/03/07 19:03:38;;;;;;;12.20;10.97;;;8.60;27.10;;;;;;10319091;28;20569;-72
2023/03/07 19:08:41;;;;;;;11.40;10.07;;;8.60;27.20;;;;;;10321528;28;20239;-73
2023/03/07 19:13:46;;;;;;;11.73;10.33;;;8.60;27.30;;;;;;10322514;28;20610;-72
2023/03/07 19:18:50;;;;;;;13.30;11.90;;;8.50;27.20;;;;;;10319672;28;20245;-73
2023/03/07 19:23:55;;;;;;;13.30;11.80;;;8.50;27.20;;;;;;10319926;28;20227;-73
2023/03/07 19:29:03;;;;;;;14.70;13.13;;;8.40;27.20;;;;;;10321764;28;20235;-76
2023/03/07 19:34:07;;;;;;;13.93;12.13;;;8.40;27.20;;;;;;10321519;28;20239;-72
2023/03/07 19:39:19;;;;;;;9.93;9.03;;;8.30;27.30;;;;;;10320662;28;20235;-73
2023/03/07 19:44:24;;;;;;;7.93;7.13;;;8.20;27.10;;;;;;10321070;28;20230;-74
2023/03/07 19:49:27;;;;;;;7.30;6.60;;;8.20;27.20;;;;;;10324624;28;20743;-74
2023/03/07 19:54:30;;;;;;;9.83;7.80;;;8.00;27.20;;;;;;10323581;28;20231;-74
2023/03/07 19:59:35;;;;;;;8.17;7.27;;;7.90;27.10;;;;;;10324621;28;20235;-74
2023/03/07 20:04:38;;;;;;;7.07;6.30;;;7.70;27.60;;;;;;10324879;28;20638;-73
2023/03/07 20:09:41;;;;;;;9.37;8.37;;;7.60;27.50;;;;;;10326840;28;20222;-73
2023/03/07 20:14:46;;;;;;;11.27;10.00;;;7.50;27.50;;;;;;10334285;28;20604;-74
2023/03/07 20:19:50;;;;;;;15.70;13.23;;;7.50;27.50;;;;;;10311733;28;20230;-73
2023/03/07 20:24:55;;;;;;;13.47;11.27;;;7.50;27.50;;;;;;10323359;28;20831;-73
2023/03/07 20:30:03;;;;;;;10.63;8.33;;;7.40;27.40;;;;;;10321943;28;20231;-73
2023/03/07 20:35:06;;;;;;;9.13;7.97;;;7.30;27.60;;;;;;10305751;28;20221;-74
2023/03/07 20:40:11;;;;;;;10.13;8.80;;;7.10;27.70;;;;;;10317399;28;20230;-73
2023/03/07 20:45:15;;;;;;;10.97;9.37;;;7.10;27.90;;;;;;10322157;28;20239;-73
2023/03/07 20:50:19;;;;;;;10.17;9.10;;;7.00;28.00;;;;;;10314357;28;20599;-74
2023/03/07 20:55:22;;;;;;;10.83;8.93;;;7.00;28.10;;;;;;10316206;28;20241;-74
2023/03/07 21:00:26;;;;;;;11.77;8.10;;;6.90;28.10;;;;;;10314291;28;20500;-74
2023/03/07 21:05:29;;;;;;;11.07;8.40;;;6.90;28.20;;;;;;10318910;28;20237;-74
2023/03/07 21:10:33;;;;;;;8.73;7.67;;;6.80;28.30;;;;;;10319603;28;20238;-74
2023/03/07 21:15:39;;;;;;;8.30;7.37;;;6.70;28.50;;;;;;10318762;28;20238;-74
2023/03/07 21:20:42;;;;;;;7.30;6.60;;;6.50;28.70;;;;;;10319728;28;20235;-73
2023/03/07 21:25:46;;;;;;;7.27;6.57;;;6.50;28.90;;;;;;10312855;28;20240;-73
2023/03/07 21:30:50;;;;;;;10.83;7.47;;;6.50;29.00;;;;;;10315391;28;20231;-73
2023/03/07 21:35:53;;;;;;;9.03;7.93;;;6.50;29.10;;;;;;10311509;28;20242;-73
2023/03/07 21:40:57;;;;;;;10.33;8.23;;;6.60;29.10;;;;;;10305923;28;20277;-73
2023/03/07 21:46:04;;;;;;;8.70;7.67;;;6.60;29.10;;;;;;10312019;28;20276;-74
2023/03/07 21:51:08;;;;;;;8.97;7.53;;;6.70;29.20;;;;;;10321869;28;20736;-73
2023/03/07 21:56:15;;;;;;;8.57;7.13;;;6.70;29.10;;;;;;10323695;28;20231;-72
2023/03/07 22:01:21;;;;;;;9.07;7.33;;;6.80;29.10;;;;;;10324375;28;20226;-74
2023/03/07 22:06:26;;;;;;;9.87;8.57;;;6.80;29.10;;;;;;10323979;28;20231;-73
2023/03/07 22:11:29;;;;;;;9.60;6.10;;;6.90;29.10;;;;;;10323908;28;20590;-73
2023/03/07 22:16:33;;;;;;;7.20;5.77;;;7.00;29.00;;;;;;10323087;28;20230;-73
2023/03/07 22:21:37;;;;;;;5.97;5.37;;;7.00;28.90;;;;;;10322198;28;20302;-73
2023/03/07 22:26:40;;;;;;;7.40;5.70;;;7.10;28.90;;;;;;10322356;28;20973;-73
2023/03/07 22:31:44;;;;;;;6.93;6.23;;;7.20;28.80;;;;;;10322740;28;20250;-73
2023/03/07 22:36:50;;;;;;;7.27;6.30;;;7.30;28.80;;;;;;10320171;28;20655;-73
2023/03/07 22:41:53;;;;;;;6.63;6.03;;;7.40;28.70;;;;;;10320692;28;20231;-73
2023/03/07 22:46:58;;;;;;;7.53;6.13;;;7.40;28.60;;;;;;10318655;28;20230;-73
2023/03/07 22:52:02;;;;;;;8.03;6.63;;;7.50;28.50;;;;;;10319976;28;20235;-73
2023/03/07 22:57:05;;;;;;;7.60;6.80;;;7.50;28.60;;;;;;10323462;28;20570;-72
2023/03/07 23:02:10;;;;;;;8.17;6.50;;;7.60;28.50;;;;;;10323196;28;20238;-73
2023/03/07 23:07:13;;;;;;;7.37;6.63;;;7.60;28.40;;;;;;10322521;28;20233;-72
2023/03/07 23:12:16;;;;;;;7.43;6.43;;;7.60;28.30;;;;;;10322443;28;20619;-72
2023/03/07 23:17:21;;;;;;;8.67;6.53;;;7.70;28.30;;;;;;10323291;28;20558;-72
2023/03/07 23:22:24;;;;;;;8.63;6.77;;;7.70;28.20;;;;;;10318768;28;20627;-72
2023/03/07 23:27:27;;;;;;;9.37;7.37;;;7.60;28.30;;;;;;10321910;28;20257;-72
2023/03/07 23:32:32;;;;;;;7.63;6.57;;;7.60;28.20;;;;;;10320301;28;20238;-70
2023/03/07 23:37:35;;;;;;;7.43;6.50;;;7.60;28.20;;;;;;10321076;28;20234;-71
2023/03/07 23:42:38;;;;;;;7.00;6.30;;;7.60;28.20;;;;;;10321718;28;20231;-70
2023/03/07 23:47:43;;;;;;;7.37;6.67;;;7.60;28.20;;;;;;10317229;28;20235;-70
2023/03/07 23:52:46;;;;;;;7.63;6.07;;;7.60;28.30;;;;;;10319450;28;20239;-70
2023/03/07 23:57:50;;;;;;;7.27;6.57;;;7.50;28.20;;;;;;10320844;28;20227;-70
